Terminal Aerodrome Forecast
Issued by NWS

Home | Current Version | Previous Version | Text Only | Print | Product List | Glossary On
Versions: 1 2 3 4 5 6 7 8 9 10 11 12 13 14 15 16 17
863
FTUS43 KDVN 271010 AAB
TAFBRL
TAF AMD
KBRL 271010Z 2710/2806 VRB03KT 1SM BR SCT003
      TEMPO 2710/2713 1/4SM FG VV002
     FM271400 10006KT 6SM BR SCT020
     FM272300 11007KT P6SM VCTS BKN050CB
     FM280300 03010KT 6SM BR BKN030=

USA.gov is the U.S. government's official web portal to all federal, state and local government web resources and services.